Weather at Bentonville Municipal-Louise M Thaden Field

Public forecast

Using degrees Fahrenheit for public forecast. Weather courtesy of forecast.io.

Current aviation weather report (METAR) for Bentonville Municipal-Louise M Thaden Field

Report is more than 6 hours old.

2024/05/26 06:45 (retrieved 3 days ago)

KVBT 260645Z AUTO 30023G44KT 1 3/4SM +TSRA BR OVC021 22/21 A2949 RMK AO2 PK WND 30044/0645 WSHFT 0631 LTG DSNT ALQDS PRESFR

Closest aviation forecast (TAF) to Bentonville Municipal-Louise M Thaden Field

Closest forecast is Rogers Municipal Airport-Carter Field, 5.7 nm (10.5 km) ENE.

2024/05/28 18:22 (retrieved 5 hours ago)

TAF KROG 281720Z 2818/2918 VRB05KT P6SM VCSH BKN150 TEMPO 2818/2821 4SM -TSRA BKN050CB FM290000 VRB05KT P6SM BKN200 FM291200 11008KT P6SM BKN060 PROB30 2915/2918 4SM -TSRA BKN035CB